PWSweather.com
Personal Weather Stations
Station Observations
KAZPHOEN90
RayThunderhill, Phoenix, AZ

RayThunderhillPhoenix, AZ

Lat: 33.312, Lon: -112.029

Elevation: 1260

Station Type: Davis Vantage VUE

Latest ConditionsUpdated 6:45:01 PM MST Saturday, May 28, 2016
Currently Today's Max Today's Min Today's Average
Temperature 91.9°F33.3°C 97.8°F36.6°C 63.9°F17.7°C 82.8°F28.2°C
Dew Point 25.0°F-3.9°C 43.4°F6.3°C 21.2°F-6.0°C 33.7°F0.9°C
Winds 0.6 mph S1.0 kmh S 4.4 mph SSW7.1 kmh SSW - 0.7 mph 1.1 kmh
Wind Gusts 3.0 mph4.8 kmh 8.0 mph12.9 kmh - -
Humidity 9% 42% 7% 20%
Pressure 29.63 in1003.4 mb 29.74 in1007.1 mb 29.61 in1002.7 mb -
Hour Temp Dew Point Humidity Winds Wind Gusts Pressure Precip Precip Rate Daily Precip Total
06:45 PM 91.9°F33.3°C 25.0°F-3.9°C 9% 0.6 mph S1.0 kmh S 3.0 mph4.8 kmh 29.63 in1003.4 mb - 0.00 in0.0 mm 0.00 in0.0 mm
06:30 PM 92.6°F33.7°C 25.5°F-3.6°C 9% 0.9 mph SSW1.4 kmh SSW 1.0 mph1.6 kmh 29.63 in1003.4 mb - 0.00 in0.0 mm 0.00 in0.0 mm
06:15 PM 93.1°F33.9°C 23.1°F-4.9°C 8% 2.6 mph S4.2 kmh S 4.0 mph6.4 kmh 29.62 in1003.0 mb - 0.00 in0.0 mm 0.00 in0.0 mm
06:00 PM 93.6°F34.2°C 26.3°F-3.2°C 9% 0.6 mph SE1.0 kmh SE 4.0 mph6.4 kmh 29.61 in1002.7 mb - 0.00 in0.0 mm 0.00 in0.0 mm
05:45 PM 94.2°F34.6°C 23.9°F-4.5°C 8% 2.8 mph S4.5 kmh S 5.0 mph8.0 kmh 29.61 in1002.7 mb - 0.00 in0.0 mm 0.00 in0.0 mm
05:30 PM 94.9°F34.9°C 21.2°F-6.0°C 7% 0.3 mph WSW0.5 kmh WSW -- 29.61 in1002.7 mb - 0.00 in0.0 mm 0.00 in0.0 mm
05:15 PM 95.4°F35.2°C 24.8°F-4.0°C 8% 2.2 mph SSE3.5 kmh SSE 3.0 mph4.8 kmh 29.62 in1003.0 mb - 0.00 in0.0 mm 0.00 in0.0 mm
05:00 PM 96.6°F35.9°C 25.6°F-3.6°C 8% 3.4 mph SW5.5 kmh SW 8.0 mph12.9 kmh 29.62 in1003.0 mb - 0.00 in0.0 mm 0.00 in0.0 mm
04:45 PM 95.9°F35.5°C 22.0°F-5.6°C 7% 2.3 mph SSE3.7 kmh SSE 4.0 mph6.4 kmh 29.62 in1003.0 mb - 0.00 in0.0 mm 0.00 in0.0 mm
04:30 PM 97.0°F36.1°C 22.7°F-5.2°C 7% 1.5 mph S2.4 kmh S 6.0 mph9.7 kmh 29.62 in1003.0 mb - 0.00 in0.0 mm 0.00 in0.0 mm
04:15 PM 97.8°F36.6°C 23.3°F-4.8°C 7% 2.7 mph SW4.3 kmh SW 4.0 mph6.4 kmh 29.62 in1003.0 mb - 0.00 in0.0 mm 0.00 in0.0 mm
04:00 PM 96.6°F35.9°C 25.7°F-3.5°C 8% 0.2 mph SW0.3 kmh SW 1.0 mph1.6 kmh 29.63 in1003.4 mb - 0.00 in0.0 mm 0.00 in0.0 mm
03:45 PM 95.6°F35.3°C 27.7°F-2.4°C 9% 1.0 mph SW1.6 kmh SW 3.0 mph4.8 kmh 29.64 in1003.7 mb - 0.00 in0.0 mm 0.00 in0.0 mm
03:30 PM 96.0°F35.6°C 28.1°F-2.2°C 9% 1.8 mph WNW2.9 kmh WNW 4.0 mph6.4 kmh 29.64 in1003.7 mb - 0.00 in0.0 mm 0.00 in0.0 mm
03:15 PM 96.2°F35.7°C 28.2°F-2.1°C 9% 1.6 mph SSE2.6 kmh SSE 4.0 mph6.4 kmh 29.64 in1003.7 mb - 0.00 in0.0 mm 0.00 in0.0 mm
03:00 PM 96.4°F35.8°C 28.4°F-2.0°C 9% 2.7 mph SE4.3 kmh SE 8.0 mph12.9 kmh 29.64 in1003.7 mb - 0.00 in0.0 mm 0.00 in0.0 mm
02:45 PM 96.2°F35.7°C 30.8°F-0.7°C 10% 2.0 mph SW3.2 kmh SW 4.0 mph6.4 kmh 29.65 in1004.1 mb - 0.00 in0.0 mm 0.00 in0.0 mm
02:30 PM 96.1°F35.6°C 28.1°F-2.2°C 9% 1.5 mph SE2.4 kmh SE 4.0 mph6.4 kmh 29.65 in1004.1 mb - 0.00 in0.0 mm 0.00 in0.0 mm
02:15 PM 96.2°F35.7°C 30.8°F-0.7°C 10% 4.4 mph SSW7.1 kmh SSW 6.0 mph9.7 kmh 29.66 in1004.4 mb - 0.00 in0.0 mm 0.00 in0.0 mm
02:00 PM 95.6°F35.3°C 27.7°F-2.4°C 9% 1.4 mph W2.3 kmh W 4.0 mph6.4 kmh 29.67 in1004.7 mb - 0.00 in0.0 mm 0.00 in0.0 mm
01:45 PM 96.2°F35.7°C 30.8°F-0.7°C 10% 0.4 mph SSW0.6 kmh SSW 1.0 mph1.6 kmh 29.67 in1004.7 mb - 0.00 in0.0 mm 0.00 in0.0 mm
01:30 PM 96.8°F36.0°C 31.2°F-0.4°C 10% 2.5 mph E4.0 kmh E 6.0 mph9.7 kmh 29.68 in1005.1 mb - 0.00 in0.0 mm 0.00 in0.0 mm
01:15 PM 95.5°F35.3°C 27.7°F-2.4°C 9% 0.3 mph E0.5 kmh E 1.0 mph1.6 kmh 29.68 in1005.1 mb - 0.00 in0.0 mm 0.00 in0.0 mm
01:00 PM 95.1°F35.1°C 30.0°F-1.1°C 10% 2.3 mph E3.7 kmh E 5.0 mph8.0 kmh 29.68 in1005.1 mb - 0.00 in0.0 mm 0.00 in0.0 mm
12:45 PM 93.5°F34.2°C 31.1°F-0.5°C 11% 0.1 mph SE0.2 kmh SE 1.0 mph1.6 kmh 29.69 in1005.4 mb - 0.00 in0.0 mm 0.00 in0.0 mm
12:30 PM 92.5°F33.6°C 32.5°F0.3°C 12% 2.4 mph WSW3.9 kmh WSW 5.0 mph8.0 kmh 29.70 in1005.8 mb - 0.00 in0.0 mm 0.00 in0.0 mm
12:15 PM 93.5°F34.2°C 33.3°F0.7°C 12% 1.6 mph E2.6 kmh E 3.0 mph4.8 kmh 29.70 in1005.8 mb - 0.00 in0.0 mm 0.00 in0.0 mm
12:00 PM 92.9°F33.8°C 34.8°F1.6°C 13% 0.8 mph WNW1.3 kmh WNW 1.0 mph1.6 kmh 29.70 in1005.8 mb - 0.00 in0.0 mm 0.00 in0.0 mm
11:45 AM 91.7°F33.2°C 35.7°F2.1°C 14% 1.6 mph E2.6 kmh E 4.0 mph6.4 kmh 29.71 in1006.1 mb - 0.00 in0.0 mm 0.00 in0.0 mm
11:30 AM 90.9°F32.7°C 35.1°F1.7°C 14% 1.3 mph ESE2.1 kmh ESE 2.0 mph3.2 kmh 29.71 in1006.1 mb - 0.00 in0.0 mm 0.00 in0.0 mm
11:15 AM 89.8°F32.1°C 34.2°F1.2°C 14% Calm Calm -- 29.72 in1006.4 mb - 0.00 in0.0 mm 0.00 in0.0 mm
11:00 AM 89.5°F31.9°C 37.4°F3.0°C 16% 0.9 mph SE1.4 kmh SE 3.0 mph4.8 kmh 29.72 in1006.4 mb - 0.00 in0.0 mm 0.00 in0.0 mm
10:45 AM 88.2°F31.2°C 37.9°F3.3°C 17% Calm Calm -- 29.72 in1006.4 mb - 0.00 in0.0 mm 0.00 in0.0 mm
10:30 AM 87.8°F31.0°C 36.0°F2.2°C 16% 0.1 mph N0.2 kmh N 1.0 mph1.6 kmh 29.73 in1006.8 mb - 0.00 in0.0 mm 0.00 in0.0 mm
10:15 AM 87.2°F30.7°C 39.9°F4.4°C 19% 0.7 mph ESE1.1 kmh ESE 2.0 mph3.2 kmh 29.73 in1006.8 mb - 0.00 in0.0 mm 0.00 in0.0 mm
10:00 AM 86.8°F30.4°C 39.6°F4.2°C 19% 0.9 mph SE1.4 kmh SE 2.0 mph3.2 kmh 29.73 in1006.8 mb - 0.00 in0.0 mm 0.00 in0.0 mm
09:45 AM 85.1°F29.5°C 38.2°F3.4°C 19% 0.2 mph ESE0.3 kmh ESE -- 29.73 in1006.8 mb - 0.00 in0.0 mm 0.00 in0.0 mm
09:30 AM 83.7°F28.7°C 39.6°F4.2°C 21% 1.1 mph SSE1.8 kmh SSE 3.0 mph4.8 kmh 29.73 in1006.8 mb - 0.00 in0.0 mm 0.00 in0.0 mm
09:15 AM 83.1°F28.4°C 39.1°F3.9°C 21% 0.3 mph E0.5 kmh E 2.0 mph3.2 kmh 29.73 in1006.8 mb - 0.00 in0.0 mm 0.00 in0.0 mm
09:00 AM 81.2°F27.3°C 39.8°F4.3°C 23% 0.3 mph ESE0.5 kmh ESE 1.0 mph1.6 kmh 29.73 in1006.8 mb - 0.00 in0.0 mm 0.00 in0.0 mm
08:45 AM 80.8°F27.1°C 39.5°F4.2°C 23% 0.7 mph E1.1 kmh E 3.0 mph4.8 kmh 29.74 in1007.1 mb - 0.00 in0.0 mm 0.00 in0.0 mm
08:30 AM 81.1°F27.3°C 40.9°F4.9°C 24% 0.3 mph ESE0.5 kmh ESE 2.0 mph3.2 kmh 29.73 in1006.8 mb - 0.00 in0.0 mm 0.00 in0.0 mm
08:15 AM 81.6°F27.6°C 40.2°F4.6°C 23% 0.1 mph SE0.2 kmh SE 1.0 mph1.6 kmh 29.73 in1006.8 mb - 0.00 in0.0 mm 0.00 in0.0 mm
08:00 AM 79.7°F26.5°C 40.7°F4.8°C 25% Calm Calm -- 29.73 in1006.8 mb - 0.00 in0.0 mm 0.00 in0.0 mm
07:45 AM 77.2°F25.1°C 40.7°F4.8°C 27% Calm Calm -- 29.73 in1006.8 mb - 0.00 in0.0 mm 0.00 in0.0 mm
07:30 AM 76.9°F24.9°C 41.3°F5.2°C 28% Calm Calm 1.0 mph1.6 kmh 29.73 in1006.8 mb - 0.00 in0.0 mm 0.00 in0.0 mm
07:15 AM 74.7°F23.7°C 39.4°F4.1°C 28% Calm Calm -- 29.72 in1006.4 mb - 0.00 in0.0 mm 0.00 in0.0 mm
07:00 AM 73.0°F22.8°C 40.5°F4.7°C 31% 0.1 mph SE0.2 kmh SE 1.0 mph1.6 kmh 29.72 in1006.4 mb - 0.00 in0.0 mm 0.00 in0.0 mm
06:45 AM 69.5°F20.8°C 43.4°F6.3°C 39% Calm Calm -- 29.71 in1006.1 mb - 0.00 in0.0 mm 0.00 in0.0 mm
06:30 AM 65.5°F18.6°C 41.8°F5.4°C 42% Calm Calm -- 29.71 in1006.1 mb - 0.00 in0.0 mm 0.00 in0.0 mm
06:15 AM 64.4°F18.0°C 40.8°F4.9°C 42% Calm Calm -- 29.71 in1006.1 mb - 0.00 in0.0 mm 0.00 in0.0 mm
06:00 AM 63.9°F17.7°C 40.3°F4.6°C 42% Calm Calm -- 29.70 in1005.8 mb - 0.00 in0.0 mm 0.00 in0.0 mm
05:45 AM 64.1°F17.8°C 39.2°F4.0°C 40% Calm Calm -- 29.70 in1005.8 mb - 0.00 in0.0 mm 0.00 in0.0 mm
05:30 AM 65.1°F18.4°C 38.2°F3.4°C 37% Calm Calm -- 29.70 in1005.8 mb - 0.00 in0.0 mm 0.00 in0.0 mm
05:15 AM 65.6°F18.7°C 37.9°F3.3°C 36% Calm Calm -- 29.70 in1005.8 mb - 0.00 in0.0 mm 0.00 in0.0 mm
05:00 AM 65.9°F18.8°C 37.5°F3.1°C 35% Calm Calm -- 29.70 in1005.8 mb - 0.00 in0.0 mm 0.00 in0.0 mm
04:45 AM 67.8°F19.9°C 37.6°F3.1°C 33% Calm Calm -- 29.68 in1005.1 mb - 0.00 in0.0 mm 0.00 in0.0 mm
04:30 AM 68.7°F20.4°C 37.6°F3.1°C 32% Calm Calm -- 29.68 in1005.1 mb - 0.00 in0.0 mm 0.00 in0.0 mm
04:15 AM 69.8°F21.0°C 36.1°F2.3°C 29% Calm Calm -- 29.68 in1005.1 mb - 0.00 in0.0 mm 0.00 in0.0 mm
04:00 AM 70.9°F21.6°C 36.1°F2.3°C 28% Calm Calm -- 29.67 in1004.7 mb - 0.00 in0.0 mm 0.00 in0.0 mm
03:45 AM 71.9°F22.2°C 36.0°F2.2°C 27% Calm Calm -- 29.67 in1004.7 mb - 0.00 in0.0 mm 0.00 in0.0 mm
03:30 AM 72.5°F22.5°C 34.7°F1.5°C 25% Calm Calm 1.0 mph1.6 kmh 29.67 in1004.7 mb - 0.00 in0.0 mm 0.00 in0.0 mm
03:15 AM 71.8°F22.1°C 35.1°F1.7°C 26% Calm Calm -- 29.67 in1004.7 mb - 0.00 in0.0 mm 0.00 in0.0 mm
03:00 AM 72.6°F22.6°C 33.7°F0.9°C 24% Calm Calm -- 29.68 in1005.1 mb - 0.00 in0.0 mm 0.00 in0.0 mm
02:45 AM 71.6°F22.0°C 34.9°F1.6°C 26% Calm Calm -- 29.68 in1005.1 mb - 0.00 in0.0 mm 0.00 in0.0 mm
02:30 AM 73.5°F23.1°C 33.4°F0.8°C 23% Calm Calm -- 29.68 in1005.1 mb - 0.00 in0.0 mm 0.00 in0.0 mm
02:15 AM 75.2°F24.0°C 32.6°F0.3°C 21% 0.1 mph N0.2 kmh N 1.0 mph1.6 kmh 29.68 in1005.1 mb - 0.00 in0.0 mm 0.00 in0.0 mm
02:00 AM 72.1°F22.3°C 34.3°F1.3°C 25% Calm Calm -- 29.68 in1005.1 mb - 0.00 in0.0 mm 0.00 in0.0 mm
01:45 AM 71.3°F21.8°C 33.6°F0.9°C 25% Calm Calm -- 29.68 in1005.1 mb - 0.00 in0.0 mm 0.00 in0.0 mm
01:30 AM 71.9°F22.2°C 32.1°F0.1°C 23% Calm Calm -- 29.68 in1005.1 mb - 0.00 in0.0 mm 0.00 in0.0 mm
01:15 AM 70.8°F21.6°C 34.2°F1.2°C 26% Calm Calm -- 29.68 in1005.1 mb - 0.00 in0.0 mm 0.00 in0.0 mm
01:00 AM 71.4°F21.9°C 35.6°F2.0°C 27% Calm Calm -- 29.68 in1005.1 mb - 0.00 in0.0 mm 0.00 in0.0 mm
12:45 AM 71.7°F22.1°C 35.9°F2.2°C 27% Calm Calm -- 29.68 in1005.1 mb - 0.00 in0.0 mm 0.00 in0.0 mm
12:30 AM 72.0°F22.2°C 35.2°F1.8°C 26% Calm Calm -- 29.68 in1005.1 mb - 0.00 in0.0 mm 0.00 in0.0 mm
12:15 AM 72.3°F22.4°C 35.5°F1.9°C 26% Calm Calm -- 29.68 in1005.1 mb - 0.00 in0.0 mm 0.00 in0.0 mm
12:00 AM 72.6°F22.6°C 34.7°F1.5°C 25% Calm Calm -- 29.68 in1005.1 mb - 0.00 in0.0 mm 0.00 in0.0 mm